createdAt,value
2019-02-05T00:00:27.466Z,50.9
2019-02-05T00:01:15.724Z,50.9
2019-02-05T00:02:06.584Z,50.9
2019-02-05T00:02:56.354Z,50.9
2019-02-05T00:03:46.721Z,50.9
2019-02-05T00:04:35.712Z,50.9
2019-02-05T00:05:26.545Z,50.9
2019-02-05T00:06:16.756Z,50.8
2019-02-05T00:07:06.654Z,50.9
2019-02-05T00:07:56.989Z,50.8
2019-02-05T00:08:47.053Z,50.8
2019-02-05T00:09:38.966Z,50.8
2019-02-05T00:10:27.171Z,50.8
2019-02-05T00:11:16.936Z,50.8
2019-02-05T00:12:07.299Z,50.8
2019-02-05T00:12:57.090Z,50.8
2019-02-05T00:13:47.136Z,50.8
2019-02-05T00:14:37.731Z,50.8
2019-02-05T00:15:28.115Z,50.8
2019-02-05T00:16:17.878Z,50.8
2019-02-05T00:17:07.898Z,50.8
2019-02-05T00:17:57.153Z,50.8
2019-02-05T00:18:51.596Z,50.8
2019-02-05T00:19:37.538Z,50.7
2019-02-05T00:20:27.398Z,50.8
2019-02-05T00:21:17.118Z,50.7
2019-02-05T00:22:07.437Z,50.7
2019-02-05T00:22:57.497Z,50.7
2019-02-05T00:23:47.875Z,50.7
2019-02-05T00:24:38.627Z,50.7
2019-02-05T00:25:27.683Z,50.7
2019-02-05T00:26:18.280Z,50.7
2019-02-05T00:27:08.632Z,50.7
2019-02-05T00:28:00.883Z,50.7
2019-02-05T00:28:48.475Z,50.6
2019-02-05T00:29:38.355Z,50.6
2019-02-05T00:30:28.617Z,50.6
2019-02-05T00:31:18.744Z,50.6
2019-02-05T00:32:08.707Z,50.6
2019-02-05T00:32:58.265Z,50.6
2019-02-05T00:33:49.282Z,50.6
2019-02-05T00:34:38.073Z,50.6
2019-02-05T00:35:28.947Z,50.6
2019-02-05T00:36:18.159Z,50.6
2019-02-05T00:37:11.149Z,50.6
2019-02-05T00:37:58.837Z,50.6
2019-02-05T00:38:49.157Z,50.6
2019-02-05T00:39:38.939Z,50.6
2019-02-05T00:40:29.557Z,50.6
2019-02-05T00:41:19.344Z,50.6
2019-02-05T00:42:09.376Z,50.5
2019-02-05T00:42:59.878Z,50.5
2019-02-05T00:43:49.797Z,50.5
2019-02-05T00:44:39.664Z,50.5
2019-02-05T00:45:29.632Z,50.5
2019-02-05T00:46:19.646Z,50.5
2019-02-05T00:47:09.542Z,50.5
2019-02-05T00:47:59.913Z,50.5
2019-02-05T00:48:49.583Z,50.4
2019-02-05T00:49:39.923Z,50.4
2019-02-05T00:50:29.714Z,50.4
2019-02-05T00:51:20.035Z,50.4
2019-02-05T00:52:10.818Z,50.4
2019-02-05T00:52:59.618Z,50.4
2019-02-05T00:53:50.503Z,50.4
2019-02-05T00:54:39.998Z,50.4
2019-02-05T00:55:30.743Z,50.4
2019-02-05T00:56:22.586Z,50.4
2019-02-05T00:57:10.446Z,50.4
2019-02-05T00:57:59.968Z,50.4
2019-02-05T00:58:50.844Z,50.4
2019-02-05T00:59:40.395Z,50.4
2019-02-05T01:00:30.760Z,50.4
2019-02-05T01:01:21.846Z,50.3
2019-02-05T01:02:10.818Z,50.3
2019-02-05T01:03:01.023Z,50.3
2019-02-05T01:03:50.563Z,50.3
2019-02-05T01:04:42.778Z,50.3
2019-02-05T01:05:31.047Z,50.3
2019-02-05T01:06:21.093Z,50.3
2019-02-05T01:07:11.147Z,50.3
2019-02-05T01:08:01.506Z,50.3
2019-02-05T01:08:51.285Z,50.3
2019-02-05T01:09:41.058Z,50.3
2019-02-05T01:10:32.923Z,50.3
2019-02-05T01:11:21.738Z,50.3
2019-02-05T01:12:11.227Z,50.3
2019-02-05T01:13:00.932Z,50.3
2019-02-05T01:13:52.444Z,50.3
2019-02-05T01:14:40.866Z,50.2
2019-02-05T01:15:31.010Z,50.2
2019-02-05T01:16:22.199Z,50.2
2019-02-05T01:17:11.059Z,50.2
2019-02-05T01:18:02.212Z,50.2
2019-02-05T01:18:52.256Z,50.2
2019-02-05T01:19:42.521Z,50.2
2019-02-05T01:20:32.099Z,50.2
2019-02-05T01:21:21.884Z,50.2
2019-02-05T01:22:12.496Z,50.2
2019-02-05T01:23:02.871Z,50.1
2019-02-05T01:23:52.330Z,50.1
2019-02-05T01:24:42.386Z,50.1
2019-02-05T01:25:32.574Z,50.1
2019-02-05T01:26:35.969Z,50.1
2019-02-05T01:27:11.746Z,50.1
2019-02-05T01:28:02.646Z,50.1
2019-02-05T01:28:53.784Z,50.1
2019-02-05T01:29:42.776Z,50.1
2019-02-05T01:30:32.843Z,50.1
2019-02-05T01:31:23.131Z,50.1
2019-02-05T01:32:15.403Z,50.1
2019-02-05T01:33:03.106Z,50.1
2019-02-05T01:33:53.043Z,50.1
2019-02-05T01:34:43.106Z,50.1
2019-02-05T01:35:32.885Z,50.1
2019-02-05T01:36:22.997Z,50
2019-02-05T01:37:13.385Z,50
2019-02-05T01:38:03.566Z,50.1
2019-02-05T01:38:52.828Z,50
2019-02-05T01:39:42.955Z,50
2019-02-05T01:40:33.800Z,50
2019-02-05T01:41:26.043Z,50
2019-02-05T01:42:13.070Z,49.9
2019-02-05T01:43:03.432Z,50
2019-02-05T01:43:52.420Z,49.9
2019-02-05T01:44:43.656Z,49.9
2019-02-05T01:45:33.580Z,49.9
2019-02-05T01:46:24.206Z,49.9
2019-02-05T01:47:14.350Z,49.9
2019-02-05T01:48:03.008Z,49.9
2019-02-05T01:48:54.120Z,49.9
2019-02-05T01:49:44.174Z,49.9
2019-02-05T01:50:35.151Z,49.9
2019-02-05T01:51:24.257Z,49.9
2019-02-05T01:52:13.874Z,49.9
2019-02-05T01:53:03.618Z,49.9
2019-02-05T01:53:54.722Z,49.9
2019-02-05T01:54:43.957Z,49.9
2019-02-05T01:55:34.299Z,49.9
2019-02-05T01:56:24.645Z,49.9
2019-02-05T01:57:14.672Z,49.8
2019-02-05T01:58:04.490Z,49.9
2019-02-05T01:58:54.547Z,49.8
2019-02-05T01:59:46.496Z,49.8
2019-02-05T02:00:35.552Z,49.8
2019-02-05T02:01:24.994Z,49.8
2019-02-05T02:02:14.219Z,49.8
2019-02-05T02:03:05.401Z,49.8
2019-02-05T02:03:54.889Z,49.8
2019-02-05T02:04:44.935Z,49.8
2019-02-05T02:05:36.421Z,49.8
2019-02-05T02:06:24.584Z,49.8
2019-02-05T02:07:15.211Z,49.8
2019-02-05T02:08:05.324Z,49.8
2019-02-05T02:08:55.728Z,49.8
2019-02-05T02:09:45.098Z,49.8
2019-02-05T02:10:35.254Z,49.8
2019-02-05T02:11:24.966Z,49.7
2019-02-05T02:12:16.011Z,49.7
2019-02-05T02:13:05.099Z,49.8
2019-02-05T02:13:55.833Z,49.7
2019-02-05T02:14:47.881Z,49.7
2019-02-05T02:15:35.972Z,49.7
2019-02-05T02:16:26.043Z,49.7
2019-02-05T02:17:15.806Z,49.6
2019-02-05T02:18:05.859Z,49.5
2019-02-05T02:18:55.194Z,49.4
2019-02-05T02:19:46.278Z,49.3
2019-02-05T02:20:36.093Z,49.4
2019-02-05T02:21:25.808Z,49.4
2019-02-05T02:22:16.480Z,49.6
2019-02-05T02:23:06.867Z,49.8
2019-02-05T02:23:59.038Z,49.8
2019-02-05T02:24:46.724Z,49.9
2019-02-05T02:25:36.942Z,50
2019-02-05T02:26:26.217Z,50.2
2019-02-05T02:27:16.785Z,50.3
2019-02-05T02:28:06.849Z,50.4
2019-02-05T02:28:56.362Z,50.6
2019-02-05T02:29:47.373Z,50.8
2019-02-05T02:30:36.822Z,50.9
2019-02-05T02:31:26.630Z,51.1
2019-02-05T02:32:17.187Z,51.2
2019-02-05T02:33:09.932Z,51.4
2019-02-05T02:33:57.286Z,51.6
2019-02-05T02:34:46.854Z,51.7
2019-02-05T02:35:37.076Z,51.8
2019-02-05T02:36:27.242Z,52
2019-02-05T02:37:17.868Z,52.2
2019-02-05T02:38:58.140Z,52.6
2019-02-05T02:39:47.417Z,52.8
2019-02-05T02:40:37.500Z,53
2019-02-05T02:41:27.159Z,53.1
2019-02-05T02:42:19.723Z,53.3
2019-02-05T02:43:07.175Z,53.4
2019-02-05T02:43:57.980Z,53.5
2019-02-05T02:44:46.432Z,53.8
2019-02-05T02:45:37.819Z,53.9
2019-02-05T02:46:27.385Z,54
2019-02-05T02:47:17.738Z,54.1
2019-02-05T02:48:08.071Z,54.4
2019-02-05T02:48:58.671Z,54.5
2019-02-05T02:49:48.141Z,54.8
2019-02-05T02:50:38.469Z,54.9
2019-02-05T02:51:30.076Z,55
2019-02-05T02:52:18.918Z,55.3
2019-02-05T02:53:08.462Z,55.4
2019-02-05T02:53:58.556Z,55.6
2019-02-05T02:54:48.839Z,55.7
2019-02-05T02:55:39.002Z,55.9
2019-02-05T02:56:28.116Z,56.1
2019-02-05T02:57:19.748Z,56.2
2019-02-05T02:58:08.735Z,56.4
2019-02-05T02:58:58.887Z,56.6
2019-02-05T02:59:47.865Z,56.7
2019-02-05T03:00:39.388Z,56.9
2019-02-05T03:01:28.614Z,57.1
2019-02-05T03:02:18.826Z,57.2
2019-02-05T03:03:09.656Z,57.4
2019-02-05T03:03:59.330Z,57.5
2019-02-05T03:04:48.980Z,57.7
2019-02-05T03:08:20.688Z,58.3
2019-02-05T03:09:10.999Z,58.4
2019-02-05T03:10:02.767Z,58.6
2019-02-05T03:10:51.416Z,58.8
2019-02-05T03:11:41.237Z,59.1
2019-02-05T03:12:30.973Z,59.3
2019-02-05T03:13:22.075Z,59.4
2019-02-05T03:14:11.784Z,59.6
2019-02-05T03:15:01.872Z,59.8
2019-02-05T03:15:52.329Z,59.9
2019-02-05T03:16:42.372Z,60.1
2019-02-05T03:17:31.324Z,60.1
2019-02-05T03:18:21.426Z,60.3
2019-02-05T03:19:13.437Z,60.4
2019-02-05T03:20:02.108Z,60.6
2019-02-05T03:20:52.075Z,60.8
2019-02-05T03:21:42.088Z,61
2019-02-05T03:22:31.696Z,61.1
2019-02-05T03:23:22.041Z,61.4
2019-02-05T03:24:12.423Z,61.5
2019-02-05T03:25:03.193Z,61.6
2019-02-05T03:25:51.990Z,61.8
2019-02-05T03:26:42.681Z,61.8
2019-02-05T03:27:32.489Z,61.9
2019-02-05T03:28:22.369Z,61.9
2019-02-05T03:29:12.441Z,61.9
2019-02-05T03:30:02.641Z,61.9
2019-02-05T03:30:57.632Z,61.9
2019-02-05T03:31:42.977Z,61.9
2019-02-05T03:32:33.144Z,61.9
2019-02-05T03:33:23.369Z,61.9
2019-02-05T03:34:12.753Z,62
2019-02-05T03:35:03.849Z,61.9
2019-02-05T03:35:53.194Z,61.9
2019-02-05T03:36:44.770Z,61.9
2019-02-05T03:37:32.704Z,61.9
2019-02-05T03:38:23.056Z,61.9
2019-02-05T03:39:13.123Z,61.9
2019-02-05T03:40:03.496Z,61.9
2019-02-05T03:40:53.383Z,61.9
2019-02-05T03:41:43.333Z,61.9
2019-02-05T03:42:34.076Z,61.9
2019-02-05T03:43:22.886Z,61.9
2019-02-05T03:44:13.608Z,61.9
2019-02-05T03:45:03.415Z,61.9
2019-02-05T03:45:55.188Z,61.9
2019-02-05T03:46:43.360Z,61.9
2019-02-05T03:47:33.686Z,61.9
2019-02-05T03:48:24.011Z,61.9
2019-02-05T03:49:13.948Z,61.9
2019-02-05T03:50:04.302Z,61.9
2019-02-05T03:50:54.371Z,61.9
2019-02-05T03:51:46.091Z,61.9
2019-02-05T03:52:34.032Z,61.9
2019-02-05T03:53:23.814Z,61.9
2019-02-05T03:54:14.541Z,61.9
2019-02-05T03:55:04.163Z,61.9
2019-02-05T03:55:54.624Z,61.9
2019-02-05T03:56:44.643Z,61.9
2019-02-05T03:59:35.443Z,61.9
2019-02-05T03:59:47.966Z,61.8
2019-02-05T04:00:36.582Z,61.8
2019-02-05T04:01:26.432Z,61.8
2019-02-05T04:02:16.473Z,61.8
2019-02-05T04:03:06.818Z,61.8
2019-02-05T04:03:56.849Z,61.8
2019-02-05T04:04:46.606Z,61.8
2019-02-05T04:05:37.765Z,61.8
2019-02-05T04:06:26.744Z,61.8
2019-02-05T04:07:16.788Z,61.8
2019-02-05T04:08:07.142Z,61.8
2019-02-05T04:08:58.481Z,61.8
2019-02-05T04:09:46.698Z,61.8
2019-02-05T04:10:37.015Z,61.8
2019-02-05T04:11:27.118Z,61.8
2019-02-05T04:12:16.926Z,61.8
2019-02-05T04:13:07.478Z,61.8
2019-02-05T04:13:57.543Z,61.8
2019-02-05T04:14:48.132Z,61.8
2019-02-05T04:15:37.654Z,61.8
2019-02-05T04:16:27.451Z,61.8
2019-02-05T04:17:17.217Z,61.8
2019-02-05T04:18:08.399Z,61.8
2019-02-05T04:18:57.598Z,61.8
2019-02-05T04:19:47.992Z,61.8
2019-02-05T04:20:38.000Z,61.7
2019-02-05T04:21:27.500Z,61.7
2019-02-05T04:22:18.116Z,61.7
2019-02-05T04:23:07.659Z,61.7
2019-02-05T04:23:59.794Z,61.7
2019-02-05T04:24:48.026Z,61.7
2019-02-05T04:25:38.218Z,61.7
2019-02-05T04:26:27.848Z,61.7
2019-02-05T04:27:18.778Z,61.7
2019-02-05T04:28:08.309Z,61.7
2019-02-05T04:28:58.624Z,61.6
2019-02-05T04:29:48.356Z,61.6
2019-02-05T04:30:38.430Z,61.6
2019-02-05T04:31:28.789Z,61.6
2019-02-05T04:32:18.575Z,61.6
2019-02-05T04:33:11.044Z,61.6
2019-02-05T04:33:58.673Z,61.6
2019-02-05T04:34:48.721Z,61.6
2019-02-05T04:35:39.057Z,61.6
2019-02-05T04:36:28.940Z,61.6
2019-02-05T04:37:19.174Z,61.6
2019-02-05T04:38:08.471Z,61.6
2019-02-05T04:38:58.893Z,61.6
2019-02-05T04:39:49.355Z,61.6
2019-02-05T04:40:39.433Z,61.6
2019-02-05T04:41:29.457Z,61.6
2019-02-05T04:42:21.891Z,61.6
2019-02-05T04:43:09.047Z,61.5
2019-02-05T04:43:59.077Z,61.6
2019-02-05T04:44:49.414Z,61.6
2019-02-05T04:45:39.855Z,61.5
2019-02-05T04:46:30.037Z,61.5
2019-02-05T04:47:19.587Z,61.5
2019-02-05T04:48:10.317Z,61.5
2019-02-05T04:48:59.703Z,61.5
2019-02-05T04:49:49.782Z,61.5
2019-02-05T04:50:39.841Z,61.5
2019-02-05T04:51:31.609Z,61.5
2019-02-05T04:52:19.741Z,61.5
2019-02-05T04:53:10.320Z,61.5
2019-02-05T04:54:00.347Z,61.4
2019-02-05T04:54:50.485Z,61.4
2019-02-05T04:55:39.903Z,61.4
2019-02-05T04:56:30.367Z,61.4
2019-02-05T04:57:21.856Z,61.4
2019-02-05T04:58:10.658Z,61.4
2019-02-05T04:59:00.122Z,61.4
2019-02-05T04:59:50.759Z,61.4
2019-02-05T05:00:41.439Z,61.4
2019-02-05T05:01:30.924Z,61.4
2019-02-05T05:02:21.049Z,61.4
2019-02-05T05:03:10.983Z,61.4
2019-02-05T05:04:01.296Z,61.4
2019-02-05T05:04:51.103Z,61.4
2019-02-05T05:05:41.191Z,61.4
2019-02-05T05:06:32.963Z,61.4
2019-02-05T05:07:21.028Z,61.4
2019-02-05T05:08:11.314Z,61.4
2019-02-05T05:09:01.929Z,61.4
2019-02-05T05:09:51.470Z,61.4
2019-02-05T05:10:41.236Z,61.3
2019-02-05T05:11:31.290Z,61.3
2019-02-05T05:12:21.553Z,61.3
2019-02-05T05:13:11.690Z,61.3
2019-02-05T05:14:01.779Z,61.3
2019-02-05T05:14:51.543Z,61.3
2019-02-05T05:15:43.377Z,61.3
2019-02-05T05:16:31.628Z,61.3
2019-02-05T05:17:21.757Z,61.3
2019-02-05T05:18:11.520Z,61.3
2019-02-05T05:19:02.621Z,61.3
2019-02-05T05:19:52.176Z,61.3
2019-02-05T05:20:42.198Z,61.3
2019-02-05T05:21:33.408Z,61.3
2019-02-05T05:22:22.432Z,61.3
2019-02-05T05:23:12.379Z,61.3
2019-02-05T05:24:02.662Z,61.3
2019-02-05T05:24:52.378Z,61.3
2019-02-05T05:25:43.067Z,61.3
2019-02-05T05:26:32.520Z,61.3
2019-02-05T05:27:23.291Z,61.2
2019-02-05T05:28:15.069Z,61.2
2019-02-05T05:29:02.839Z,61.3
2019-02-05T05:29:53.341Z,61.2
2019-02-05T05:30:44.617Z,61.2
2019-02-05T05:31:33.644Z,61.2
2019-02-05T05:32:22.924Z,61.2
2019-02-05T05:33:13.590Z,61.1
2019-02-05T05:34:03.687Z,61.1
2019-02-05T05:34:53.709Z,61.2
2019-02-05T05:35:48.928Z,61.1
2019-02-05T05:36:35.571Z,61.1
2019-02-05T05:37:23.733Z,61.1
2019-02-05T05:38:13.764Z,61.1
2019-02-05T05:39:03.991Z,61.1
2019-02-05T05:39:53.637Z,61.1
2019-02-05T05:40:44.147Z,61.1
2019-02-05T05:41:33.598Z,61.1
2019-02-05T05:42:23.832Z,61.1
2019-02-05T05:43:13.881Z,61.1
2019-02-05T05:44:04.298Z,61.1
2019-02-05T05:44:53.881Z,61.1
2019-02-05T05:45:46.454Z,61.1
2019-02-05T05:46:33.779Z,61.1
2019-02-05T05:47:24.263Z,61.1
2019-02-05T05:48:14.337Z,61.1
2019-02-05T05:49:04.691Z,61.1
2019-02-05T05:49:54.180Z,61.1
2019-02-05T05:50:44.850Z,61.1
2019-02-05T05:51:35.685Z,61.1
2019-02-05T05:52:24.633Z,61
2019-02-05T05:53:14.952Z,61
2019-02-05T05:54:04.723Z,61
2019-02-05T05:54:55.083Z,61
2019-02-05T05:55:44.620Z,61
2019-02-05T05:56:34.385Z,61
2019-02-05T05:57:25.161Z,61
2019-02-05T05:58:29.677Z,61
2019-02-05T05:59:05.227Z,60.9
2019-02-05T05:59:55.162Z,60.9
2019-02-05T06:00:47.758Z,60.9
2019-02-05T06:01:35.223Z,60.9
2019-02-05T06:02:25.357Z,60.9
2019-02-05T06:03:15.539Z,60.9
2019-02-05T06:04:05.468Z,60.9
2019-02-05T06:06:21.036Z,60.9
2019-02-05T06:07:10.758Z,60.9
2019-02-05T06:08:01.730Z,60.9
2019-02-05T06:08:53.404Z,60.9
2019-02-05T06:09:41.938Z,60.9
2019-02-05T06:10:31.141Z,60.9
2019-02-05T06:11:21.594Z,60.9
2019-02-05T06:12:10.839Z,60.9
2019-02-05T06:13:02.110Z,60.9
2019-02-05T06:13:52.047Z,60.8
2019-02-05T06:14:42.359Z,60.8
2019-02-05T06:15:31.736Z,60.9
2019-02-05T06:16:21.959Z,60.8
2019-02-05T06:17:12.004Z,60.8
2019-02-05T06:18:02.434Z,60.8
2019-02-05T06:18:52.479Z,60.8
2019-02-05T06:19:41.358Z,60.8
2019-02-05T06:20:32.256Z,60.8
2019-02-05T06:21:21.480Z,60.8
2019-02-05T06:22:12.421Z,60.8
2019-02-05T06:23:02.428Z,60.8
2019-02-05T06:23:55.446Z,60.8
2019-02-05T06:24:42.538Z,60.8
2019-02-05T06:25:32.096Z,60.8
2019-02-05T06:26:24.874Z,60.8
2019-02-05T06:27:12.459Z,60.8
2019-02-05T06:28:03.038Z,60.8
2019-02-05T06:28:53.173Z,60.8
2019-02-05T06:29:44.118Z,60.7
2019-02-05T06:30:32.936Z,60.7
2019-02-05T06:31:23.259Z,60.7
2019-02-05T06:32:12.888Z,60.7
2019-02-05T06:33:03.686Z,60.7
2019-02-05T06:33:53.458Z,60.7
2019-02-05T06:34:43.230Z,60.7
2019-02-05T06:35:33.106Z,60.7
2019-02-05T06:36:23.650Z,60.7
2019-02-05T06:37:13.426Z,60.7
2019-02-05T06:38:03.755Z,60.7
2019-02-05T06:38:55.545Z,60.6
2019-02-05T06:39:43.458Z,60.6
2019-02-05T06:40:33.983Z,60.6
2019-02-05T06:41:23.427Z,60.6
2019-02-05T06:42:14.070Z,60.6
2019-02-05T06:43:04.112Z,60.6
2019-02-05T06:43:53.550Z,60.6
2019-02-05T06:44:45.069Z,60.6
2019-02-05T06:45:34.272Z,60.6
2019-02-05T06:46:24.010Z,60.6
2019-02-05T06:47:13.811Z,60.6
2019-02-05T06:48:05.325Z,60.6
2019-02-05T06:48:54.180Z,60.6
2019-02-05T06:49:44.617Z,60.6
2019-02-05T06:50:34.328Z,60.5
2019-02-05T06:51:24.391Z,60.5
2019-02-05T06:52:14.697Z,60.5
2019-02-05T06:53:04.501Z,60.5
2019-02-05T06:53:56.507Z,60.5
2019-02-05T06:54:44.064Z,60.5
2019-02-05T06:55:34.172Z,60.5
2019-02-05T06:56:24.529Z,60.5
2019-02-05T06:57:14.494Z,60.5
2019-02-05T06:58:04.598Z,60.5
2019-02-05T06:58:54.048Z,60.5
2019-02-05T06:59:45.899Z,60.4
2019-02-05T07:00:34.456Z,60.4
2019-02-05T07:01:25.149Z,60.4
2019-02-05T07:02:14.591Z,60.4
2019-02-05T07:03:06.767Z,60.4
2019-02-05T07:03:55.248Z,60.4
2019-02-05T07:06:20.916Z,60.4
2019-02-05T07:07:10.989Z,60.4
2019-02-05T07:08:01.328Z,60.4
2019-02-05T07:08:52.268Z,60.4
2019-02-05T07:09:41.756Z,60.4
2019-02-05T07:10:31.813Z,60.4
2019-02-05T07:11:21.658Z,60.4
2019-02-05T07:12:11.608Z,60.4
2019-02-05T07:13:01.749Z,60.4
2019-02-05T07:13:51.743Z,60.4
2019-02-05T07:14:43.808Z,60.3
2019-02-05T07:15:32.150Z,60.4
2019-02-05T07:16:21.918Z,60.3
2019-02-05T07:17:11.391Z,60.3
2019-02-05T07:18:02.305Z,60.3
2019-02-05T07:18:51.521Z,60.3
2019-02-05T07:19:42.407Z,60.3
2019-02-05T07:20:32.782Z,60.3
2019-02-05T07:21:22.243Z,60.3
2019-02-05T07:22:12.645Z,60.3
2019-02-05T07:23:02.763Z,60.3
2019-02-05T07:23:53.405Z,60.3
2019-02-05T07:24:42.237Z,60.3
2019-02-05T07:25:32.554Z,60.3
2019-02-05T07:26:22.600Z,60.3
2019-02-05T07:27:12.680Z,60.3
2019-02-05T07:28:02.229Z,60.3
2019-02-05T07:29:06.061Z,60.3
2019-02-05T07:29:45.317Z,60.2
2019-02-05T07:30:32.864Z,60.2
2019-02-05T07:31:22.686Z,60.2
2019-02-05T07:32:13.344Z,60.2
2019-02-05T07:33:02.839Z,60.2
2019-02-05T07:33:53.266Z,60.2
2019-02-05T07:34:43.681Z,60.2
2019-02-05T07:35:34.818Z,60.2
2019-02-05T07:36:23.700Z,60.2
2019-02-05T07:37:13.434Z,60.1
2019-02-05T07:38:03.490Z,60.1
2019-02-05T07:38:52.709Z,60.1
2019-02-05T07:39:42.770Z,60.1
2019-02-05T07:40:33.746Z,60.1
2019-02-05T07:41:25.011Z,60.1
2019-02-05T07:42:13.233Z,60.1
2019-02-05T07:43:03.119Z,60.1
2019-02-05T07:43:54.227Z,60.1
2019-02-05T07:44:44.884Z,60.1
2019-02-05T07:45:33.562Z,60.1
2019-02-05T07:46:24.002Z,60.1
2019-02-05T07:47:15.626Z,60.1
2019-02-05T07:48:03.906Z,60.1
2019-02-05T07:48:54.223Z,60.1
2019-02-05T07:49:44.538Z,60.1
2019-02-05T07:50:33.801Z,60.1
2019-02-05T07:51:24.770Z,60.1
2019-02-05T07:52:14.208Z,60
2019-02-05T07:53:04.569Z,60
2019-02-05T07:53:54.049Z,60.1
2019-02-05T07:54:44.881Z,60
2019-02-05T07:55:34.393Z,60
2019-02-05T07:56:26.175Z,60
2019-02-05T07:57:14.529Z,60
2019-02-05T07:58:04.857Z,60
2019-02-05T07:58:54.880Z,60
2019-02-05T07:59:47.952Z,59.9
2019-02-05T08:00:35.381Z,59.9
2019-02-05T08:01:25.156Z,59.9
2019-02-05T08:02:17.180Z,59.9
2019-02-05T08:03:05.014Z,59.9
2019-02-05T08:03:54.800Z,59.9
2019-02-05T08:04:45.452Z,59.9
2019-02-05T08:05:35.632Z,59.9
2019-02-05T08:06:25.537Z,59.9
2019-02-05T08:07:14.960Z,59.9
2019-02-05T08:08:20.857Z,59.9
2019-02-05T08:08:55.590Z,59.9
2019-02-05T08:09:45.384Z,59.9
2019-02-05T08:10:35.750Z,59.9
2019-02-05T08:11:25.672Z,59.9
2019-02-05T08:12:15.625Z,59.9
2019-02-05T08:13:05.979Z,59.9
2019-02-05T08:13:56.882Z,59.9
2019-02-05T08:14:45.799Z,59.9
2019-02-05T08:15:36.118Z,59.8
2019-02-05T08:16:26.121Z,59.9
2019-02-05T08:17:16.539Z,59.8
2019-02-05T08:18:06.006Z,59.8
2019-02-05T08:18:56.029Z,59.8
2019-02-05T08:19:48.306Z,59.8
2019-02-05T08:20:36.531Z,59.8
2019-02-05T08:21:26.357Z,59.8
2019-02-05T08:22:16.616Z,59.8
2019-02-05T08:23:06.674Z,59.8
2019-02-05T08:23:56.637Z,59.8
2019-02-05T08:24:46.951Z,59.8
2019-02-05T08:25:38.818Z,59.8
2019-02-05T08:26:26.846Z,59.8
2019-02-05T08:27:16.154Z,59.8
2019-02-05T08:28:07.111Z,59.8
2019-02-05T08:28:57.258Z,59.8
2019-02-05T08:29:46.480Z,59.8
2019-02-05T08:30:37.151Z,59.8
2019-02-05T08:31:27.828Z,59.7
2019-02-05T08:32:17.537Z,59.8
2019-02-05T08:33:06.830Z,59.7
2019-02-05T08:33:57.077Z,59.7
2019-02-05T08:34:49.888Z,59.7
2019-02-05T08:35:37.185Z,59.7
2019-02-05T08:36:27.540Z,59.7
2019-02-05T08:37:17.970Z,59.7
2019-02-05T08:38:07.448Z,59.7
2019-02-05T08:38:57.968Z,59.7
2019-02-05T08:39:46.407Z,59.6
2019-02-05T08:40:40.392Z,59.7
2019-02-05T08:41:27.090Z,59.6
2019-02-05T08:42:17.720Z,59.6
2019-02-05T08:43:07.712Z,59.6
2019-02-05T08:43:58.292Z,59.6
2019-02-05T08:44:47.566Z,59.6
2019-02-05T08:45:38.033Z,59.6
2019-02-05T08:46:28.780Z,59.6
2019-02-05T08:47:17.729Z,59.6
2019-02-05T08:48:08.342Z,59.6
2019-02-05T08:48:58.412Z,59.6
2019-02-05T08:49:48.823Z,59.6
2019-02-05T08:50:38.372Z,59.6
2019-02-05T08:51:27.719Z,59.6
2019-02-05T08:52:18.889Z,59.6
2019-02-05T08:53:07.952Z,59.6
2019-02-05T08:53:58.741Z,59.5
2019-02-05T08:54:49.088Z,59.6
2019-02-05T08:55:40.069Z,59.5
2019-02-05T08:56:28.969Z,59.5
2019-02-05T08:57:18.991Z,59.5
2019-02-05T08:58:08.629Z,59.5
2019-02-05T08:58:59.097Z,59.5
2019-02-05T08:59:49.166Z,59.5
2019-02-05T09:00:39.626Z,59.5
2019-02-05T09:01:31.772Z,59.5
2019-02-05T09:02:18.522Z,59.5
2019-02-05T09:03:09.394Z,59.4
2019-02-05T09:03:58.936Z,59.4
2019-02-05T09:04:49.493Z,59.4
2019-02-05T09:05:39.403Z,59.4
2019-02-05T09:06:29.610Z,59.4
2019-02-05T09:07:21.063Z,59.4
2019-02-05T09:08:09.861Z,59.4
2019-02-05T09:08:59.773Z,59.4
2019-02-05T09:09:50.135Z,59.4
2019-02-05T09:10:39.623Z,59.4
2019-02-05T09:11:29.503Z,59.4
2019-02-05T09:12:23.125Z,59.4
2019-02-05T09:13:10.063Z,59.4
2019-02-05T09:14:14.586Z,59.4
2019-02-05T09:14:49.998Z,59.4
2019-02-05T09:15:40.033Z,59.4
2019-02-05T09:16:32.688Z,59.4
2019-02-05T09:17:19.832Z,59.4
2019-02-05T09:18:09.676Z,59.3
2019-02-05T09:19:00.870Z,59.3
2019-02-05T09:19:50.302Z,59.3
2019-02-05T09:20:39.775Z,59.3
2019-02-05T09:21:30.665Z,59.3
2019-02-05T09:22:22.340Z,59.3
2019-02-05T09:23:14.021Z,59.3
2019-02-05T09:24:00.568Z,59.3
2019-02-05T09:24:50.971Z,59.3
2019-02-05T09:25:41.014Z,59.3
2019-02-05T09:26:30.696Z,59.3
2019-02-05T09:27:21.342Z,59.3
2019-02-05T09:28:11.732Z,59.3
2019-02-05T09:29:01.482Z,59.3
2019-02-05T09:29:51.227Z,59.3
2019-02-05T09:30:41.586Z,59.3
2019-02-05T09:31:33.089Z,59.3
2019-02-05T09:32:21.394Z,59.3
2019-02-05T09:33:11.811Z,59.2
2019-02-05T09:34:01.251Z,59.2
2019-02-05T09:34:51.954Z,59.2
2019-02-05T09:35:41.389Z,59.2
2019-02-05T09:36:31.516Z,59.2
2019-02-05T09:37:23.621Z,59.2
2019-02-05T09:38:27.219Z,59.2
2019-02-05T09:39:00.609Z,59.2
2019-02-05T09:39:52.221Z,59.2
2019-02-05T09:40:41.476Z,59.1
2019-02-05T09:41:31.553Z,59.2
2019-02-05T09:42:21.151Z,59.1
2019-02-05T09:43:13.819Z,59.1
2019-02-05T09:44:01.943Z,59.1
2019-02-05T09:44:52.396Z,59.1
2019-02-05T09:45:42.646Z,59.1
2019-02-05T09:46:33.234Z,59.1
2019-02-05T09:47:22.510Z,59.1
2019-02-05T09:48:12.412Z,59.1
2019-02-05T09:49:52.365Z,59.1
2019-02-05T09:50:49.953Z,59.1
2019-02-05T09:51:33.020Z,59.1
2019-02-05T09:52:25.288Z,59.1
2019-02-05T09:53:13.227Z,59.1
2019-02-05T09:54:02.945Z,59.1
2019-02-05T09:54:52.685Z,59.1
2019-02-05T09:55:43.098Z,59
2019-02-05T09:56:33.130Z,59
2019-02-05T09:57:23.595Z,59
2019-02-05T09:58:14.773Z,59
2019-02-05T09:59:03.280Z,59
2019-02-05T09:59:53.085Z,59
2019-02-05T10:00:43.565Z,59
2019-02-05T10:01:32.372Z,59
2019-02-05T10:02:24.286Z,59
2019-02-05T10:03:13.960Z,58.9
2019-02-05T10:04:04.234Z,59
2019-02-05T10:04:53.742Z,58.9
2019-02-05T10:07:35.680Z,58.9
2019-02-05T10:08:12.764Z,58.9
2019-02-05T10:09:16.858Z,58.9
2019-02-05T10:10:08.294Z,58.9
2019-02-05T10:10:42.830Z,58.9
2019-02-05T10:12:30.196Z,58.9
2019-02-05T10:13:50.971Z,58.9
2019-02-05T10:14:34.990Z,58.9
2019-02-05T10:16:06.251Z,58.9
2019-02-05T10:16:55.726Z,58.9
2019-02-05T10:18:32.487Z,58.9
2019-02-05T10:18:49.379Z,58.8
2019-02-05T10:19:37.614Z,58.9
2019-02-05T10:20:42.302Z,58.8
2019-02-05T10:21:31.781Z,58.8
2019-02-05T10:22:44.256Z,58.8
2019-02-05T10:23:33.105Z,58.8
2019-02-05T10:24:09.106Z,58.8
2019-02-05T10:26:09.433Z,58.8
2019-02-05T10:26:53.454Z,58.8
2019-02-05T10:27:43.006Z,58.8
2019-02-05T10:28:33.320Z,58.8
2019-02-05T10:29:23.603Z,58.8
2019-02-05T10:30:12.051Z,58.8
2019-02-05T10:31:02.408Z,58.8
2019-02-05T10:32:08.033Z,58.8
2019-02-05T10:32:43.106Z,58.8
2019-02-05T10:33:33.135Z,58.8
2019-02-05T10:34:35.830Z,58.7
2019-02-05T10:35:15.555Z,58.7
2019-02-05T10:36:06.145Z,58.8
2019-02-05T10:36:53.365Z,58.7
2019-02-05T10:37:58.135Z,58.7
2019-02-05T10:38:33.993Z,58.7
2019-02-05T10:39:23.995Z,58.7
2019-02-05T10:40:13.693Z,58.7
2019-02-05T10:41:04.740Z,58.7
2019-02-05T10:41:53.986Z,58.7
2019-02-05T10:42:46.290Z,58.6
2019-02-05T10:43:34.154Z,58.7
2019-02-05T10:44:25.184Z,58.7
2019-02-05T10:45:46.022Z,58.6
2019-02-05T10:46:03.945Z,58.6
2019-02-05T10:46:54.362Z,58.6
2019-02-05T10:47:44.507Z,58.6
2019-02-05T10:48:34.724Z,58.6
2019-02-05T10:49:24.682Z,58.6
2019-02-05T10:50:17.558Z,58.6
2019-02-05T11:01:56.043Z,58.6
2019-02-05T11:02:46.304Z,58.7
2019-02-05T11:03:35.226Z,58.8
2019-02-05T11:04:25.585Z,58.8
2019-02-05T11:05:17.003Z,58.8
2019-02-05T11:06:05.123Z,58.9
2019-02-05T11:06:56.090Z,58.9
2019-02-05T11:07:45.551Z,59
2019-02-05T11:08:50.771Z,59.1
2019-02-05T11:09:25.616Z,59.1
2019-02-05T11:10:16.003Z,59.1
2019-02-05T11:11:08.109Z,59.2
2019-02-05T11:11:56.233Z,59.3
2019-02-05T11:12:45.901Z,59.3
2019-02-05T11:13:36.220Z,59.4
2019-02-05T11:14:26.155Z,59.4
2019-02-05T11:15:16.316Z,59.4
2019-02-05T11:16:07.016Z,59.6
2019-02-05T11:16:57.330Z,59.6
2019-02-05T11:17:45.950Z,59.6
2019-02-05T11:18:36.875Z,59.8
2019-02-05T11:19:26.678Z,59.8
2019-02-05T11:20:17.975Z,59.9
2019-02-05T11:21:09.145Z,59.9
2019-02-05T11:21:56.827Z,60
2019-02-05T11:22:46.875Z,60.1
2019-02-05T11:23:37.220Z,60.1
2019-02-05T11:24:27.342Z,60.1
2019-02-05T11:25:17.139Z,60.3
2019-02-05T11:26:09.445Z,60.3
2019-02-05T11:26:57.589Z,60.4
2019-02-05T11:27:50.068Z,60.4
2019-02-05T11:28:36.992Z,60.4
2019-02-05T11:29:27.077Z,60.5
2019-02-05T11:30:24.849Z,60.5
2019-02-05T11:31:07.040Z,60.6
2019-02-05T11:31:58.888Z,60.6
2019-02-05T11:32:47.277Z,60.6
2019-02-05T11:33:37.384Z,60.7